Aktualne dane pomiarowe

Uwaga, wersja testowa! Automatyczne pobieranie danych za pomocą narzędzi lub skryptów to umożliwiających jest zabronione.

Dane meteo z obszaru Polski uzyskane na podstawie depesz SYNOP pobieranych co godzinę z NWS. Najedź myszką na symbol przedstawiony w tabeli, aby uzyskać informacje co do jego znaczenia. Prosimy pamiętać, że to testowa wersja strony, która jeszcze nie jest ukończona. Stworzono również jest krótki FAQ dotyczący korzystania z tej podstrony Anomalie temperatury w chwili obecnej odniesione są do okresu referencyjnego 1951-2016. Okres ten będzie później zmieniony na 1981-2010. Kliknij ikonę aby pobrać plik CSV. Kliknij ikonę aby wygenerować mapę synoptyczną dla danego terminu.

Wybierz Datę:    

        

Kraków-Balice (12566)

Dane terminowe dla wybranej stacji. Kliknij datę, aby otrzymać dane z tego terminu dla wszystkich stacji.

TemperaturaZachmurzenieWiatrCiśnienieOpadyPogoda
 Data t td wb tx tn tg rh  Nt Nl Cl Cm Ch ws wd g1 g2 wx mslp ppp ch 24h 12h t ww ww w1 w2  
2019-06-22 23:00:00 19.2 15.1 16.4--- 7740.0wxwxwxwx3wx--31019.0 990.7 0.4---------
2019-06-22 22:00:00 19.9 14.7 16.4--- 7240.0wxwxwxwx4wx--41018.8 990.5 0.5---------
2019-06-22 21:00:00 20.2 14.8 16.6--- 7140.0wxwxwx3wx--31018.7 990.5 0.3---------
2019-06-22 20:00:00 20.8 14.7 16.8--- 6840.0wx-wx4wx--41018.5 990.3 0.0---------
2019-06-22 19:00:00 21.8 15.2 17.5--- 6640.0wxwxwxwx5wx--51018.1 990.0 -0.6---------
2019-06-22 18:00:00 22.8 15.4 18.0 25.4 19.5- 6350.0wxwxwxwxwx4wx--41018.2 990.2 -0.7- 0.012------
2019-06-22 17:00:00 23.8 15.0 18.1--- 5850.0wxwxwxwxwx5wx--51018.2 990.3 -0.9---------
2019-06-22 16:00:00 24.4 15.3 18.5--- 5750.0wxwxwxwxwx4wx--41018.4 990.6 -1.0---------
2019-06-22 15:00:00 24.2 14.9 18.2--- 5650.0wxwxwxwxwx4wx--41018.8 990.9 -1.3---------
2019-06-22 14:00:00 25.1 15.1 18.7--- 5450.0wxwxwxwxwx5wx--51019.0 991.2 -1.5---------
2019-06-22 13:00:00 24.8 15.7 18.9--- 5750.0wxwxwxwxwx5wx--51019.4 991.6 -1.2---------
2019-06-22 12:00:00 24.0 15.2 18.3--- 5850.0wxwxwxwxwx6wx--61020.1 992.2 -0.4- 0.06------
2019-06-22 11:00:00 23.1 16.9 18.9--- 6840.0wxwxwxwxwx4wx---1020.7 992.7 0.3---------
2019-06-22 10:00:00 21.2 16.4 17.9--- 7440.0wxwxwxwx5wx--51021.0 992.8 0.4---------
2019-06-22 09:00:00 22.3 17.0 18.7--- 7240.0wxwxwxwx4wx--41020.7 992.6 0.2---------
2019-06-22 08:00:00 22.7 17.2 19.0--- 7140.0wxwxwxwxwx5wx--51020.5 992.4 0.4---------
2019-06-22 07:00:00 21.3 16.3 17.9--- 7340.0wxwxwxwxwx3wx--31020.6 992.4 0.7---------
2019-06-22 06:00:00 19.5 16.3 17.3 19.8 16.1 14 8230.0wxwxwxwxwx1wx---1020.8 992.4 0.9 2.4 2.424wx-w1--
2019-06-22 05:00:00 17.8 17.8 17.8--- 1004.0wxwxwx0---01020.5 992.0 1.3---wx---
2019-06-22 04:00:00 16.7 16.7 16.7--- 1002.0wxwxwx1wx--11020.3 991.7 1.5---wx-w1--
2019-06-22 03:00:00 16.4 16.4 16.4--- 1000.2wx-2wx--21020.1 991.5 1.4---wx---
2019-06-22 02:00:00 16.3 16.3 16.3--- 1000.2wxwxwx2wx--21019.3 990.7 0.8---wx---
2019-06-22 01:00:00 16.8 16.3 16.4--- 976.0wx-wx2wx--21018.8 990.2 0.5---wx---
2019-06-22 00:00:00 17.8 16.7 17.0--- 9310.0wx-wx2wx--21018.6 990.1 0.5- 0.06------
2019-06-21 23:00:00 17.3 16.8 16.9--- 9710.0wx-wx2wx--21018.4 989.9 0.5---------
2019-06-21 22:00:00 17.8 17.5 17.6--- 985.0wx-wx2wx--21018.2 989.7 0.8---wx---
2019-06-21 21:00:00 18.4 17.9 18.0--- 9710.0wx-wx0---01018.0 989.6 0.9---------
2019-06-21 20:00:00 18.6 18.1 18.2--- 9710.0wx-wxwx3wx--31017.8 989.4 1.4---------
2019-06-21 19:00:00 19.1 17.6 18.0--- 9120.0wx-wxwx2wx--21017.2 988.9 1.6---------
2019-06-21 18:00:00 19.7 17.3 18.0 28.1 19.1- 8630.0wx-wxwx0---01016.9 988.7 1.1- 2.012wx-w1w2--
2019-06-21 17:00:00 19.6 17.9 18.4--- 9030.0wx-wx2wx---1016.2 988.0 0.9---------
2019-06-21 16:00:00 19.7 17.1 17.9--- 8530.0wxwxwxwxwx2wx--21015.5 987.3 0.2---wx-w1--
2019-06-21 15:00:00 19.3 16.7 17.5--- 8515.0wxwxwx2wx---1015.8 987.6 1.4---wx-w1--
2019-06-21 14:00:00 23.6 15.1 18.1--- 5910.0wxwxwxwxwx3wx--31014.9 987.1 0.6---wx-w1w2--
2019-06-21 13:00:00 22.8 15.6 18.1--- 6440.0wxwxwxwxwx4wx--41015.0 987.1 0.2---wx-w1w2--
2019-06-21 12:00:00 26.0 16.8 19.9--- 5740.0wxwxwxwxwx5wx--51013.8 986.2 -0.9- 0.06------
2019-06-21 11:00:00 28.0 17.5 21.1--- 5340.0wxwxwxwxwx3wx---1013.9 986.5 -0.5---------
2019-06-21 10:00:00 26.7 17.2 20.4--- 5640.0wxwxwxwxwx4wx---1014.4 986.9 0.2---------
2019-06-21 09:00:00 25.5 16.6 19.6--- 5840.0wxwxwxwxwx4wx--41014.7 987.1 0.3---------
2019-06-21 08:00:00 24.3 17.3 19.6--- 6540.0wx-wxwx3wx--31014.8 987.0 0.8---------
2019-06-21 07:00:00 22.6 17.1 18.9--- 7140.0wx-wxwx3wx--31014.6 986.7 0.5---------
2019-06-21 06:00:00 19.7 16.5 17.5 23.7 17.5 17 8220.0wx-wxwx2wx--21015.0 986.8 1.0- 0.012------
2019-06-21 05:00:00 18.2 16.2 16.8--- 8815.0wx-wxwx2wx--21014.5 986.2 1.0---------
2019-06-21 04:00:00 17.9 15.9 16.5--- 8820.0wx-wxwx3wx--31014.5 986.2 1.2---------
2019-06-21 03:00:00 18.2 15.4 16.2--- 8425.0wx-wxwx2wx--21014.1 985.8 1.3---------
2019-06-21 02:00:00 18.0 15.4 16.2--- 8530.0wx-wxwx3wx--31013.5 985.2 0.7---------
2019-06-21 01:00:00 17.8 16.0 16.5--- 8920.0wx-wxwx3wx--31013.3 985.0 0.5---------
2019-06-21 00:00:00 19.1 16.5 17.3--- 8520.0wx-wxwx3wx--31012.7 984.5 0.5- 0.06------
1.4 ms

 

Print Friendly, PDF & Email